createdAt,value
2019-03-16T00:00:32.670Z,19.80
2019-03-16T00:03:01.765Z,19.92
2019-03-16T00:05:29.661Z,18.40
2019-03-16T00:07:58.687Z,18.27
2019-03-16T00:10:26.641Z,17.00
2019-03-16T00:12:54.507Z,19.32
2019-03-16T00:15:23.614Z,18.77
2019-03-16T00:17:51.833Z,23.18
2019-03-16T00:20:19.725Z,21.87
2019-03-16T00:22:47.539Z,20.17
2019-03-16T00:25:15.458Z,21.70
2019-03-16T00:27:44.583Z,35.68
2019-03-16T00:30:12.571Z,28.83
2019-03-16T00:32:40.602Z,29.70
2019-03-16T00:35:09.539Z,37.60
2019-03-16T00:37:38.449Z,33.45
2019-03-16T00:40:06.298Z,36.10
2019-03-16T00:42:34.252Z,28.40
2019-03-16T00:45:02.020Z,22.55
2019-03-16T00:47:29.947Z,29.10
2019-03-16T00:49:59.912Z,25.97
2019-03-16T00:52:27.780Z,27.32
2019-03-16T00:54:55.689Z,23.52
2019-03-16T00:57:23.460Z,21.07
2019-03-16T00:59:54.048Z,20.05
2019-03-16T01:02:26.990Z,20.72
2019-03-16T01:04:51.923Z,22.42
2019-03-16T01:07:20.678Z,19.62
2019-03-16T01:09:50.919Z,16.95
2019-03-16T01:12:18.938Z,20.50
2019-03-16T01:14:47.541Z,20.17
2019-03-16T01:17:15.805Z,17.48
2019-03-16T01:19:43.650Z,20.15
2019-03-16T01:22:12.719Z,22.05
2019-03-16T01:24:40.611Z,17.35
2019-03-16T01:27:08.467Z,17.48
2019-03-16T01:29:36.830Z,16.70
2019-03-16T01:32:05.927Z,19.57
2019-03-16T01:34:34.637Z,20.23
2019-03-16T01:37:02.391Z,16.85
2019-03-16T01:39:30.269Z,17.15
2019-03-16T01:41:58.213Z,20.23
2019-03-16T01:44:25.992Z,16.80
2019-03-16T01:46:54.357Z,19.80
2019-03-16T01:49:22.090Z,16.27
2019-03-16T01:51:49.982Z,16.82
2019-03-16T01:54:19.071Z,16.48
2019-03-16T01:56:47.006Z,21.20
2019-03-16T01:59:16.645Z,17.15
2019-03-16T02:01:44.335Z,20.23
2019-03-16T02:04:12.188Z,17.05
2019-03-16T02:06:40.230Z,21.68
2019-03-16T02:09:10.877Z,17.25
2019-03-16T02:11:38.697Z,16.37
2019-03-16T02:14:07.566Z,18.35
2019-03-16T02:16:35.680Z,18.10
2019-03-16T02:19:03.384Z,18.90
2019-03-16T02:21:31.720Z,20.32
2019-03-16T02:23:59.568Z,16.15
2019-03-16T02:26:27.647Z,19.12
2019-03-16T02:28:55.766Z,19.67
2019-03-16T02:31:23.681Z,15.68
2019-03-16T02:33:51.404Z,20.62
2019-03-16T02:36:19.400Z,18.32
2019-03-16T02:38:47.996Z,19.17
2019-03-16T02:41:15.943Z,26.12
2019-03-16T02:43:43.761Z,16.50
2019-03-16T02:46:11.685Z,16.15
2019-03-16T02:48:39.570Z,17.50
2019-03-16T02:51:12.881Z,16.70
2019-03-16T02:53:42.058Z,15.88
2019-03-16T02:56:11.323Z,14.95
2019-03-16T02:58:40.032Z,15.95
2019-03-16T03:01:09.094Z,17.00
2019-03-16T03:03:36.791Z,23.40
2019-03-16T03:06:04.899Z,18.20
2019-03-16T03:08:32.839Z,14.70
2019-03-16T03:11:01.227Z,13.72
2019-03-16T03:13:29.296Z,16.25
2019-03-16T03:15:57.890Z,13.20
2019-03-16T03:18:25.996Z,14.15
2019-03-16T03:20:54.068Z,15.88
2019-03-16T03:23:23.217Z,14.93
2019-03-16T03:25:51.046Z,14.50
2019-03-16T03:28:18.935Z,15.18
2019-03-16T03:30:47.089Z,14.15
2019-03-16T03:33:15.179Z,15.05
2019-03-16T03:35:42.915Z,13.85
2019-03-16T03:38:10.891Z,15.23
2019-03-16T03:40:38.786Z,17.40
2019-03-16T03:43:06.565Z,17.23
2019-03-16T03:45:34.385Z,17.40
2019-03-16T03:48:04.331Z,15.68
2019-03-16T03:50:32.203Z,16.62
2019-03-16T03:53:00.120Z,17.42
2019-03-16T03:55:28.087Z,26.20
2019-03-16T03:57:56.120Z,16.37
2019-03-16T04:00:24.298Z,16.90
2019-03-16T04:02:52.783Z,16.12
2019-03-16T04:05:20.632Z,19.98
2019-03-16T04:07:48.549Z,18.37
2019-03-16T04:10:16.569Z,19.55
2019-03-16T04:12:44.710Z,16.73
2019-03-16T04:15:12.902Z,20.15
2019-03-16T04:17:40.725Z,17.00
2019-03-16T04:20:08.944Z,18.95
2019-03-16T04:22:38.874Z,16.32
2019-03-16T04:25:07.064Z,17.20
2019-03-16T04:27:35.010Z,17.92
2019-03-16T04:30:04.915Z,21.00
2019-03-16T04:32:32.839Z,18.82
2019-03-16T04:35:00.846Z,21.52
2019-03-16T04:37:28.955Z,19.85
2019-03-16T04:39:57.346Z,21.30
2019-03-16T04:42:25.100Z,20.43
2019-03-16T04:44:53.057Z,21.35
2019-03-16T04:47:20.855Z,20.27
2019-03-16T04:49:52.483Z,23.25
2019-03-16T04:52:20.294Z,17.95
2019-03-16T04:54:48.166Z,21.23
2019-03-16T04:57:16.012Z,19.27
2019-03-16T04:59:43.922Z,19.10
2019-03-16T05:02:12.580Z,26.65
2019-03-16T05:04:42.810Z,23.70
2019-03-16T05:07:11.123Z,22.95
2019-03-16T05:09:44.791Z,34.15
2019-03-16T05:12:12.610Z,42.70
2019-03-16T05:14:44.648Z,35.33
2019-03-16T05:17:12.831Z,33.83
2019-03-16T05:19:42.818Z,26.87
2019-03-16T05:22:11.883Z,26.30
2019-03-16T05:24:41.988Z,32.40
2019-03-16T05:27:10.070Z,25.30
2019-03-16T05:29:44.531Z,28.12
2019-03-16T05:32:12.620Z,25.00
2019-03-16T05:34:40.324Z,25.72
2019-03-16T05:37:08.157Z,26.60
2019-03-16T05:39:35.999Z,34.55
2019-03-16T05:42:05.196Z,28.25
2019-03-16T05:44:34.541Z,35.17
2019-03-16T05:47:02.551Z,29.23
2019-03-16T05:49:30.288Z,28.67
2019-03-16T05:51:58.244Z,26.23
2019-03-16T05:54:26.393Z,26.82
2019-03-16T05:56:56.772Z,23.25
2019-03-16T05:59:24.973Z,25.30
2019-03-16T06:01:52.724Z,29.90
2019-03-16T06:34:37.407Z,29.63
2019-03-16T06:37:05.233Z,24.32
2019-03-16T06:39:33.203Z,23.75
2019-03-16T06:42:05.534Z,20.23
2019-03-16T06:44:33.294Z,22.30
2019-03-16T06:47:01.252Z,22.40
2019-03-16T06:49:30.307Z,21.85
2019-03-16T06:51:58.144Z,20.00
2019-03-16T06:54:25.961Z,26.65
2019-03-16T06:56:54.769Z,21.60
2019-03-16T06:59:22.522Z,20.62
2019-03-16T07:01:50.903Z,19.67
2019-03-16T07:04:19.066Z,19.82
2019-03-16T07:06:47.011Z,20.02
2019-03-16T07:09:14.676Z,20.40
2019-03-16T07:11:42.769Z,22.25
2019-03-16T07:14:12.174Z,19.77
2019-03-16T07:16:39.889Z,20.57
2019-03-16T07:19:07.918Z,26.25
2019-03-16T07:21:35.853Z,22.40
2019-03-16T07:24:05.062Z,21.35
2019-03-16T07:26:33.181Z,22.93
2019-03-16T07:29:01.067Z,24.67
2019-03-16T07:31:28.910Z,24.00
2019-03-16T07:33:57.275Z,24.47
2019-03-16T07:36:25.890Z,24.23
2019-03-16T07:38:53.755Z,24.45
2019-03-16T07:41:21.599Z,22.73
2019-03-16T07:43:50.046Z,24.18
2019-03-16T07:46:18.507Z,23.12
2019-03-16T07:48:46.496Z,25.23
2019-03-16T07:51:14.265Z,31.55
2019-03-16T07:53:42.194Z,24.63
2019-03-16T07:56:10.080Z,29.30
2019-03-16T07:58:43.987Z,23.83
2019-03-16T08:01:11.669Z,22.60
2019-03-16T08:03:39.755Z,22.77
2019-03-16T08:06:07.681Z,22.77
2019-03-16T08:08:35.474Z,22.37
2019-03-16T08:11:03.413Z,22.30
2019-03-16T08:13:31.216Z,24.73
2019-03-16T08:15:59.126Z,24.20
2019-03-16T08:18:26.954Z,26.27
2019-03-16T08:20:54.856Z,26.07
2019-03-16T08:23:22.674Z,26.43
2019-03-16T08:25:50.590Z,28.70
2019-03-16T08:28:18.385Z,28.57
2019-03-16T08:30:46.369Z,27.60
2019-03-16T08:33:14.146Z,29.20
2019-03-16T08:35:43.289Z,37.27
2019-03-16T08:38:10.953Z,27.60
2019-03-16T08:40:39.049Z,27.73
2019-03-16T08:43:06.955Z,27.50
2019-03-16T08:45:34.761Z,26.10
2019-03-16T08:48:02.804Z,24.10
2019-03-16T08:50:30.504Z,26.30
2019-03-16T08:53:00.415Z,24.73
2019-03-16T08:55:28.253Z,22.77
2019-03-16T08:58:06.127Z,21.37
2019-03-16T09:00:28.502Z,21.00
2019-03-16T09:02:56.326Z,17.23
2019-03-16T09:05:24.029Z,16.73
2019-03-16T09:07:52.056Z,12.33
2019-03-16T09:10:19.978Z,10.00
2019-03-16T09:12:55.183Z,4.60
2019-03-16T09:15:21.095Z,4.13
2019-03-16T09:17:48.849Z,3.13
2019-03-16T09:20:16.744Z,3.00
2019-03-16T09:22:44.629Z,3.63
2019-03-16T09:25:12.508Z,5.00
2019-03-16T09:27:41.227Z,3.13
2019-03-16T09:30:11.341Z,3.30
2019-03-16T09:32:39.430Z,3.53
2019-03-16T09:35:07.263Z,3.83
2019-03-16T09:37:35.076Z,4.23
2019-03-16T09:40:05.407Z,3.30
2019-03-16T09:42:33.238Z,3.03
2019-03-16T09:45:01.166Z,3.53
2019-03-16T09:47:29.003Z,3.60
2019-03-16T09:49:57.772Z,8.17
2019-03-16T09:52:25.545Z,7.93
2019-03-16T09:54:53.460Z,3.73
2019-03-16T09:57:21.283Z,3.23
2019-03-16T09:59:49.202Z,3.20
2019-03-16T10:02:16.998Z,3.40
2019-03-16T10:04:46.996Z,2.80
2019-03-16T10:07:14.800Z,2.80
2019-03-16T10:09:42.713Z,4.47
2019-03-16T10:12:10.607Z,3.07
2019-03-16T10:14:38.468Z,2.37
2019-03-16T10:17:06.157Z,3.50
2019-03-16T10:19:34.994Z,3.30
2019-03-16T10:22:02.857Z,2.93
2019-03-16T10:24:31.565Z,4.53
2019-03-16T10:26:59.435Z,2.10
2019-03-16T10:29:28.878Z,4.03
2019-03-16T10:31:56.728Z,3.10
2019-03-16T10:34:24.472Z,4.60
2019-03-16T10:36:52.569Z,3.37
2019-03-16T10:39:23.048Z,3.03
2019-03-16T10:41:51.113Z,4.30
2019-03-16T10:44:18.845Z,3.10
2019-03-16T10:46:46.866Z,4.67
2019-03-16T10:49:15.549Z,2.67
2019-03-16T10:51:44.591Z,2.70
2019-03-16T10:54:12.543Z,2.63
2019-03-16T10:56:40.345Z,2.27
2019-03-16T10:59:10.386Z,3.70
2019-03-16T11:01:38.078Z,2.50
2019-03-16T11:04:06.001Z,2.83
2019-03-16T11:06:33.915Z,2.30
2019-03-16T11:09:01.752Z,2.43
2019-03-16T11:11:29.738Z,2.47
2019-03-16T11:13:57.900Z,5.30
2019-03-16T11:16:25.673Z,3.23
2019-03-16T11:18:53.628Z,4.60
2019-03-16T11:21:21.428Z,2.43
2019-03-16T11:23:57.639Z,3.10
2019-03-16T11:26:43.881Z,2.57
2019-03-16T11:29:14.387Z,2.40
2019-03-16T11:31:43.266Z,2.23
2019-03-16T11:34:10.995Z,3.00
2019-03-16T11:36:38.999Z,2.47
2019-03-16T11:39:08.313Z,5.23
2019-03-16T11:41:37.183Z,4.90
2019-03-16T11:44:06.603Z,3.43
2019-03-16T11:46:34.670Z,3.33
2019-03-16T11:49:02.847Z,3.93
2019-03-16T11:51:31.634Z,3.87
2019-03-16T11:53:59.699Z,2.50
2019-03-16T11:56:28.897Z,3.67
2019-03-16T11:58:57.066Z,6.47
2019-03-16T12:01:26.289Z,3.23
2019-03-16T12:03:54.064Z,19.57
2019-03-16T12:06:21.992Z,3.53
2019-03-16T12:08:49.767Z,4.20
2019-03-16T12:11:17.715Z,5.20
2019-03-16T12:13:45.569Z,2.47
2019-03-16T12:16:13.436Z,2.80
2019-03-16T12:18:41.242Z,3.20
2019-03-16T12:21:10.091Z,3.87
2019-03-16T12:23:38.338Z,4.70
2019-03-16T12:26:07.373Z,9.00
2019-03-16T12:28:35.197Z,7.50
2019-03-16T12:31:03.142Z,6.07
2019-03-16T12:33:30.906Z,4.73
2019-03-16T12:35:58.880Z,11.10
2019-03-16T12:38:27.862Z,14.20
2019-03-16T12:40:55.791Z,5.00
2019-03-16T12:43:23.642Z,5.73
2019-03-16T12:45:51.528Z,4.00
2019-03-16T12:48:19.308Z,4.10
2019-03-16T12:50:47.690Z,4.27
2019-03-16T12:53:15.487Z,5.93
2019-03-16T12:55:43.146Z,3.97
2019-03-16T12:58:11.219Z,7.83
2019-03-16T13:00:39.148Z,7.17
2019-03-16T13:03:06.951Z,4.00
2019-03-16T13:05:34.887Z,4.33
2019-03-16T13:08:02.671Z,5.03
2019-03-16T13:10:33.414Z,8.77
2019-03-16T13:13:01.608Z,4.67
2019-03-16T13:15:29.650Z,2.30
2019-03-16T13:17:57.429Z,2.90
2019-03-16T13:20:25.359Z,3.00
2019-03-16T13:22:54.392Z,3.00
2019-03-16T13:25:22.284Z,3.55
2019-03-16T13:27:50.155Z,4.43
2019-03-16T13:30:18.072Z,3.05
2019-03-16T13:32:45.850Z,3.55
2019-03-16T13:35:13.643Z,5.08
2019-03-16T13:37:41.603Z,3.67
2019-03-16T13:40:10.905Z,3.05
2019-03-16T13:42:39.073Z,5.00
2019-03-16T13:45:06.960Z,5.85
2019-03-16T13:47:34.888Z,4.80
2019-03-16T13:50:07.562Z,3.12
2019-03-16T13:52:35.742Z,7.12
2019-03-16T13:55:05.201Z,3.80
2019-03-16T13:57:33.107Z,4.05
2019-03-16T14:00:11.100Z,4.80
2019-03-16T14:02:30.893Z,4.25
2019-03-16T14:04:59.249Z,8.30
2019-03-16T14:07:27.489Z,6.22
2019-03-16T14:09:57.064Z,6.47
2019-03-16T14:12:24.856Z,7.60
2019-03-16T14:14:53.485Z,4.50
2019-03-16T14:17:21.364Z,6.22
2019-03-16T14:19:50.124Z,5.00
2019-03-16T14:22:17.994Z,4.58
2019-03-16T14:24:47.006Z,5.00
2019-03-16T14:27:14.946Z,5.78
2019-03-16T14:29:45.648Z,5.10
2019-03-16T14:32:13.715Z,6.78
2019-03-16T14:34:41.964Z,5.40
2019-03-16T14:37:09.724Z,7.30
2019-03-16T14:39:44.094Z,7.17
2019-03-16T14:42:12.404Z,5.55
2019-03-16T14:44:42.653Z,8.75
2019-03-16T14:47:10.571Z,8.15
2019-03-16T14:49:39.181Z,8.08
2019-03-16T14:52:07.122Z,6.25
2019-03-16T14:54:38.040Z,8.60
2019-03-16T14:57:05.742Z,9.65
2019-03-16T14:59:34.541Z,7.25
2019-03-16T15:02:02.305Z,6.85
2019-03-16T15:04:32.874Z,8.50
2019-03-16T15:07:01.705Z,7.30
2019-03-16T15:09:32.268Z,7.10
2019-03-16T15:12:00.331Z,7.20
2019-03-16T15:14:32.898Z,10.08
2019-03-16T15:17:00.979Z,6.67
2019-03-16T15:19:30.872Z,6.80
2019-03-16T15:21:58.805Z,8.95
2019-03-16T15:24:29.023Z,6.12
2019-03-16T15:26:57.016Z,5.22
2019-03-16T15:29:31.269Z,27.77
2019-03-16T15:31:58.494Z,19.17
2019-03-16T15:34:26.149Z,9.03
2019-03-16T15:36:54.167Z,5.53
2019-03-16T15:39:23.274Z,5.95
2019-03-16T15:41:51.084Z,5.00
2019-03-16T15:44:23.926Z,5.25
2019-03-16T15:46:51.743Z,6.92
2019-03-16T15:49:22.216Z,6.72
2019-03-16T15:51:50.028Z,7.35
2019-03-16T15:54:18.088Z,5.70
2019-03-16T15:56:46.163Z,6.83
2019-03-16T15:59:13.932Z,7.92
2019-03-16T16:01:41.817Z,10.50
2019-03-16T16:04:09.593Z,7.78
2019-03-16T16:06:37.514Z,17.70
2019-03-16T16:09:06.245Z,8.58
2019-03-16T16:11:35.968Z,10.55
2019-03-16T16:14:04.084Z,8.85
2019-03-16T16:16:33.106Z,11.48
2019-03-16T16:19:01.394Z,10.50
2019-03-16T16:21:30.467Z,7.65
2019-03-16T16:23:59.255Z,9.28
2019-03-16T16:26:27.373Z,10.35
2019-03-16T16:28:56.331Z,8.03
2019-03-16T16:31:24.897Z,8.25
2019-03-16T16:33:53.143Z,8.58
2019-03-16T16:36:20.906Z,14.53
2019-03-16T16:38:49.069Z,9.28
2019-03-16T16:41:17.428Z,9.58
2019-03-16T16:43:45.759Z,7.85
2019-03-16T16:46:13.615Z,12.03
2019-03-16T16:48:41.561Z,11.65
2019-03-16T16:51:09.311Z,11.25
2019-03-16T16:53:37.252Z,8.65
2019-03-16T16:56:05.278Z,8.60
2019-03-16T16:58:33.390Z,9.35
2019-03-16T17:01:01.171Z,10.10
2019-03-16T17:03:28.884Z,10.95
2019-03-16T17:05:56.903Z,12.88
2019-03-16T17:08:25.208Z,9.83
2019-03-16T17:10:54.312Z,9.55
2019-03-16T17:13:22.235Z,9.10
2019-03-16T17:15:54.792Z,10.68
2019-03-16T17:18:23.705Z,8.83
2019-03-16T17:20:51.412Z,9.93
2019-03-16T17:23:19.360Z,9.55
2019-03-16T17:25:47.283Z,9.73
2019-03-16T17:28:15.102Z,8.13
2019-03-16T17:30:43.003Z,7.42
2019-03-16T17:33:10.941Z,7.45
2019-03-16T17:35:38.755Z,7.97
2019-03-16T17:38:06.641Z,10.08
2019-03-16T17:40:34.563Z,9.68
2019-03-16T17:43:02.383Z,11.65
2019-03-16T17:45:30.134Z,11.97
2019-03-16T17:47:58.117Z,8.78
2019-03-16T17:50:25.882Z,8.40
2019-03-16T17:52:54.221Z,8.78
2019-03-16T17:55:22.066Z,7.72
2019-03-16T17:57:49.768Z,8.35
2019-03-16T18:00:17.919Z,9.23
2019-03-16T18:02:51.644Z,8.28
2019-03-16T18:05:15.554Z,6.95
2019-03-16T18:07:43.588Z,8.28
2019-03-16T18:10:11.677Z,8.35
2019-03-16T18:12:39.746Z,7.25
2019-03-16T18:15:11.726Z,8.78
2019-03-16T18:17:39.909Z,9.23
2019-03-16T18:20:08.590Z,12.73
2019-03-16T18:22:36.350Z,10.55
2019-03-16T18:25:04.965Z,10.13
2019-03-16T18:27:32.904Z,11.38
2019-03-16T18:30:00.865Z,8.55
2019-03-16T18:32:28.628Z,8.55
2019-03-16T18:34:57.830Z,8.40
2019-03-16T18:37:25.586Z,7.12
2019-03-16T18:39:53.954Z,7.75
2019-03-16T18:42:23.877Z,6.60
2019-03-16T18:44:52.992Z,11.48
2019-03-16T18:47:20.745Z,8.88
2019-03-16T18:49:49.554Z,10.55
2019-03-16T18:52:17.283Z,9.13
2019-03-16T18:54:48.924Z,8.40
2019-03-16T18:57:19.497Z,10.30
2019-03-16T18:59:48.699Z,9.25
2019-03-16T19:02:20.793Z,10.43
2019-03-16T19:04:48.218Z,8.53
2019-03-16T19:07:15.973Z,12.53
2019-03-16T19:09:43.925Z,8.70
2019-03-16T19:12:11.688Z,8.33
2019-03-16T19:14:40.037Z,7.83
2019-03-16T19:17:07.748Z,8.23
2019-03-16T19:19:35.833Z,7.42
2019-03-16T19:22:03.885Z,7.65
2019-03-16T19:24:33.945Z,7.08
2019-03-16T19:27:01.826Z,8.03
2019-03-16T19:29:29.626Z,9.83
2019-03-16T19:31:58.391Z,6.65
2019-03-16T19:34:26.567Z,8.08
2019-03-16T19:36:54.253Z,6.00
2019-03-16T19:39:28.256Z,8.33
2019-03-16T19:41:58.050Z,6.58
2019-03-16T19:44:26.036Z,8.50
2019-03-16T19:46:54.163Z,5.83
2019-03-16T19:49:25.245Z,10.35
2019-03-16T19:51:52.915Z,6.20
2019-03-16T19:54:22.303Z,7.80
2019-03-16T19:56:51.340Z,6.85
2019-03-16T19:59:19.747Z,8.05
2019-03-16T20:01:47.470Z,7.87
2019-03-16T20:04:15.405Z,11.40
2019-03-16T20:06:43.192Z,7.55
2019-03-16T20:09:11.416Z,10.72
2019-03-16T20:11:39.751Z,8.98
2019-03-16T20:14:07.702Z,7.90
2019-03-16T20:16:35.975Z,9.90
2019-03-16T20:19:03.806Z,10.20
2019-03-16T20:21:31.681Z,10.48
2019-03-16T20:24:02.405Z,9.40
2019-03-16T20:26:30.314Z,9.25
2019-03-16T20:28:57.991Z,9.25
2019-03-16T20:31:26.053Z,8.58
2019-03-16T20:33:53.846Z,9.53
2019-03-16T20:36:21.758Z,10.08
2019-03-16T20:38:50.934Z,8.60
2019-03-16T20:41:18.767Z,9.23
2019-03-16T20:43:48.245Z,10.88
2019-03-16T20:46:16.029Z,13.00
2019-03-16T20:48:44.393Z,13.70
2019-03-16T20:51:12.275Z,12.20
2019-03-16T20:53:40.051Z,12.23
2019-03-16T20:56:07.980Z,12.07
2019-03-16T20:58:35.799Z,10.68
2019-03-16T21:01:03.824Z,10.28
2019-03-16T21:03:31.577Z,14.38
2019-03-16T21:06:01.050Z,15.53
2019-03-16T21:08:28.851Z,15.08
2019-03-16T21:10:57.733Z,17.40
2019-03-16T21:13:25.859Z,21.30
2019-03-16T21:15:54.168Z,22.62
2019-03-16T21:18:22.079Z,12.85
2019-03-16T21:20:49.912Z,14.70
2019-03-16T21:23:17.717Z,17.65
2019-03-16T21:25:46.058Z,18.95
2019-03-16T21:28:16.215Z,13.50
2019-03-16T21:30:44.335Z,24.18
2019-03-16T21:33:12.025Z,13.48
2019-03-16T21:35:44.080Z,15.30
2019-03-16T21:38:11.738Z,16.75
2019-03-16T21:40:40.223Z,16.65
2019-03-16T21:43:09.249Z,11.33
2019-03-16T21:45:37.159Z,10.70
2019-03-16T21:48:04.956Z,12.93
2019-03-16T21:50:32.908Z,14.55
2019-03-16T21:53:00.723Z,12.90
2019-03-16T21:55:28.647Z,12.80
2019-03-16T21:57:56.454Z,12.23
2019-03-16T22:00:24.408Z,12.85
2019-03-16T22:02:52.303Z,13.60
2019-03-16T22:05:20.088Z,11.33
2019-03-16T22:07:47.950Z,12.28
2019-03-16T22:10:16.025Z,9.35
2019-03-16T22:12:44.246Z,9.15
2019-03-16T22:15:12.087Z,8.65
2019-03-16T22:17:40.211Z,9.98
2019-03-16T22:20:10.525Z,9.90
2019-03-16T22:22:38.934Z,8.00
2019-03-16T22:25:06.926Z,8.33
2019-03-16T22:27:35.012Z,8.23
2019-03-16T22:30:03.242Z,14.43
2019-03-16T22:32:31.946Z,11.65
2019-03-16T22:34:59.603Z,9.18
2019-03-16T22:37:27.651Z,9.20
2019-03-16T22:39:55.605Z,10.50
2019-03-16T22:42:23.425Z,9.85
2019-03-16T22:44:56.946Z,10.03
2019-03-16T22:47:24.908Z,11.90
2019-03-16T22:49:52.847Z,10.55
2019-03-16T22:52:20.553Z,12.90
2019-03-16T22:54:55.405Z,11.35
2019-03-16T22:57:23.308Z,16.15
2019-03-16T22:59:52.358Z,13.83
2019-03-16T23:02:20.448Z,10.75
2019-03-16T23:04:49.360Z,19.73
2019-03-16T23:07:17.242Z,15.00
2019-03-16T23:09:47.122Z,13.62
2019-03-16T23:12:15.872Z,15.25
2019-03-16T23:14:48.181Z,13.62
2019-03-16T23:17:16.926Z,13.55
2019-03-16T23:19:44.738Z,10.80
2019-03-16T23:22:12.637Z,13.18
2019-03-16T23:24:43.156Z,13.93
2019-03-16T23:27:12.086Z,15.13
2019-03-16T23:29:43.025Z,14.25
2019-03-16T23:32:11.060Z,13.65
2019-03-16T23:34:46.658Z,13.65
2019-03-16T23:37:14.620Z,15.08
2019-03-16T23:39:42.852Z,14.87
2019-03-16T23:42:10.732Z,17.32
2019-03-16T23:44:38.541Z,17.00
2019-03-16T23:47:06.444Z,17.55
2019-03-16T23:49:35.475Z,18.35
2019-03-16T23:52:03.213Z,18.80
2019-03-16T23:54:33.906Z,15.28
2019-03-16T23:57:02.020Z,17.10
2019-03-16T23:59:35.722Z,13.48
